Archives pour la catégorie Temps Chrono MX1

Essais Chrono en Allemagne (vidéo)MX1

http://www.dailymotion.com/video/4bfHH4jq6HQbIeL6A

MX1 – Free Practice 1Classification Teutschenthal

Pos Nr Rider Nat. Bike Bestlaptime in lap Diff. First Diff. Prev. Speed
1 90 Pourcel, Sebastien FRA Kawasaki 2:02.367 10 0:00.000 0:00.000 52.36
2 9 de Dycker, Ken BEL Honda 2:04.238 9 0:01.871 0:01.871 51.57
3 8 Priem, Manuel BEL TM 2:04.639 12 0:02.272 0:00.401 51.41
4 11 Ramon, Steve BEL Suzuki 2:04.669 10 0:02.302 0:00.030 51.40
5 19 Philippaerts, David ITA KTM 2:04.753 14 0:02.386 0:00.084 51.36
6 5 Leok, Tanel EST Kawasaki 2:05.119 8 0:02.752 0:00.366 51.21
7 2 Strijbos, Kevin BEL Suzuki 2:05.204 14 0:02.837 0:00.085 51.18
8 29 Bill, Julien SUI Kawasaki 2:05.276 13 0:02.909 0:00.072 51.15
9 14 de Reuver, Marc NED Yamaha 2:05.453 11 0:03.086 0:00.177 51.07
10 6 Coppins, Joshua NZL Yamaha 2:05.857 12 0:03.490 0:00.404 50.91
11 24 Renet, Pierre A. FRA Honda 2:05.932 11 0:03.565 0:00.075 50.88
12 7 Barragan, Jonathan ESP KTM 2:05.940 10 0:03.573 0:00.008 50.88
13 4 Brown, Mike USA Honda 2:06.118 14 0:03.751 0:00.178 50.80
14 211 Mackenzie, Billy GBR Kawasaki 2:06.209 15 0:03.842 0:00.091 50.77
15 108 Nemeth, Kornel HUN Suzuki 2:06.390 11 0:04.023 0:00.181 50.70
16 111 Leok, Aigar EST Yamaha 2:06.564 11 0:04.197 0:00.174 50.63
17 60 Anderson, Bradley GBR Yamaha 2:06.693 6 0:04.326 0:00.129 50.57
18 25 Desalle, Clement BEL Suzuki 2:06.832 9 0:04.465 0:00.139 50.52
19 32 Vanni, Julien FRA Honda 2:07.001 9 0:04.634 0:00.169 50.45
20 16 Noble, James GBR Honda 2:07.024 7 0:04.657 0:00.023 50.44
21 71 Pyrhonen, Antti FIN Kawasaki 2:07.024 11 0:04.657 0:00.000 50.44
22 23 Salvini, Alex ITA Yamaha 2:07.219 12 0:04.852 0:00.195 50.36
23 92 Columb, Scott NZL Suzuki 2:07.465 15 0:05.098 0:00.246 50.27
24 13 Crockard, Gordon IRL Honda 2:07.526 9 0:05.159 0:00.061 50.24
25 18 Allier, Thomas FRA Kawasaki 2:07.540 7 0:05.173 0:00.014 50.24
26 43 Remes, Eero FIN Honda 2:07.874 12 0:05.507 0:00.334 50.11
27 101 Nagl, Maximilian GER KTM 2:07.884 7 0:05.517 0:00.010 50.10
28 75 van Daele, Marvin BEL Honda 2:08.184 6 0:05.817 0:00.300 49.99
29 33 Coulon, Cyrille FRA Honda 2:08.506 12 0:06.139 0:00.322 49.86
30 10 Melotte, Cedric BEL Aprilia 2:08.574 12 0:06.207 0:00.068 49.83
31 35 Stevanini, Christian ITA Yamaha 2:09.139 13 0:06.772 0:00.565 49.62
32 15 Beggi, Cristian ITA WRM 2:09.141 13 0:06.774 0:00.002 49.62
33 22 Freibergs, Lauris LAT Yamaha 2:09.309 12 0:06.942 0:00.168 49.55
34 26 Kovalainen, Marko FIN Honda 2:09.748 10 0:07.381 0:00.439 49.38
35 58 Schröter, Dennis GER Suzuki 2:09.918 6 0:07.551 0:00.170 49.32
36 57 Huber, Andreas GER KTM 2:10.605 12 0:08.238 0:00.687 49.06
37 76 Norlen, Marcus SWE Suzuki 2:10.709 7 0:08.342 0:00.104 49.02
38 59 Reisinger, Oswald AUT Suzuki 2:10.753 8 0:08.386 0:00.044 49.00

Blog i-Trail |
la passion du 4x4 |
Rallye de Tunisie 2007 |
Unblog.fr | Créer un blog | Annuaire | Signaler un abus | Seb FCSM 70
| H²O_2012
| mega blog